sensor_id;sensor_type;location;lat;lon;timestamp;pressure;altitude;pressure_sealevel;temperature;humidity
9839;BME280;4958;48.150;11.506;2024-02-14T00:02:51;95449.78;;;7.18;62.44
9839;BME280;4958;48.150;11.506;2024-02-14T00:05:20;95463.06;;;7.22;62.80
9839;BME280;4958;48.150;11.506;2024-02-14T00:07:54;95451.38;;;7.19;62.40
9839;BME280;4958;48.150;11.506;2024-02-14T00:10:29;95448.19;;;7.17;62.41
9839;BME280;4958;48.150;11.506;2024-02-14T00:13:08;95445.78;;;7.16;62.35
9839;BME280;4958;48.150;11.506;2024-02-14T00:15:51;95455.84;;;7.17;62.38
9839;BME280;4958;48.150;11.506;2024-02-14T00:18:44;95444.16;;;7.15;62.48
9839;BME280;4958;48.150;11.506;2024-02-14T00:21:19;95455.22;;;7.07;62.39
9839;BME280;4958;48.150;11.506;2024-02-14T00:24:04;95452.16;;;7.04;62.54
9839;BME280;4958;48.150;11.506;2024-02-14T00:26:46;95453.13;;;7.03;62.46
9839;BME280;4958;48.150;11.506;2024-02-14T00:29:22;95454.84;;;6.94;62.75
9839;BME280;4958;48.150;11.506;2024-02-14T00:33:12;95464.13;;;6.87;62.76
9839;BME280;4958;48.150;11.506;2024-02-14T00:35:16;95465.91;;;6.86;62.98
9839;BME280;4958;48.150;11.506;2024-02-14T00:37:54;95470.81;;;6.80;62.86
9839;BME280;4958;48.150;11.506;2024-02-14T00:40:52;95481.91;;;6.88;63.10
9839;BME280;4958;48.150;11.506;2024-02-14T00:43:19;95484.75;;;6.93;62.77
9839;BME280;4958;48.150;11.506;2024-02-14T00:45:56;95480.13;;;6.97;62.94
9839;BME280;4958;48.150;11.506;2024-02-14T00:49:02;95472.31;;;6.99;62.80
9839;BME280;4958;48.150;11.506;2024-02-14T00:51:36;95468.00;;;6.99;62.81
9839;BME280;4958;48.150;11.506;2024-02-14T00:54:20;95474.88;;;6.99;62.78
9839;BME280;4958;48.150;11.506;2024-02-14T00:57:28;95478.06;;;7.01;62.79
9839;BME280;4958;48.150;11.506;2024-02-14T01:00:14;95475.06;;;7.05;62.86
9839;BME280;4958;48.150;11.506;2024-02-14T01:02:48;95470.56;;;7.07;62.57
9839;BME280;4958;48.150;11.506;2024-02-14T01:05:20;95463.03;;;7.14;62.34
9839;BME280;4958;48.150;11.506;2024-02-14T01:08:34;95460.19;;;7.17;62.24
9839;BME280;4958;48.150;11.506;2024-02-14T01:11:20;95454.09;;;7.18;61.90
9839;BME280;4958;48.150;11.506;2024-02-14T01:14:02;95447.88;;;7.20;61.91
9839;BME280;4958;48.150;11.506;2024-02-14T01:19:45;95457.63;;;7.17;62.21
9839;BME280;4958;48.150;11.506;2024-02-14T01:22:20;95452.97;;;7.20;62.15
9839;BME280;4958;48.150;11.506;2024-02-14T01:25:15;95449.00;;;7.26;62.16
9839;BME280;4958;48.150;11.506;2024-02-14T01:30:58;95443.69;;;7.19;61.83
9839;BME280;4958;48.150;11.506;2024-02-14T01:33:36;95435.53;;;7.24;62.10
9839;BME280;4958;48.150;11.506;2024-02-14T01:36:25;95440.03;;;7.30;61.71
9839;BME280;4958;48.150;11.506;2024-02-14T01:39:14;95430.44;;;7.24;61.54
9839;BME280;4958;48.150;11.506;2024-02-14T01:42:07;95428.66;;;7.24;61.73
9839;BME280;4958;48.150;11.506;2024-02-14T01:44:47;95428.34;;;7.27;61.51
9839;BME280;4958;48.150;11.506;2024-02-14T01:47:28;95421.94;;;7.32;61.48
9839;BME280;4958;48.150;11.506;2024-02-14T01:50:19;95415.53;;;7.36;61.16
9839;BME280;4958;48.150;11.506;2024-02-14T01:52:56;95412.31;;;7.34;61.54
9839;BME280;4958;48.150;11.506;2024-02-14T01:55:29;95404.81;;;7.24;61.12
9839;BME280;4958;48.150;11.506;2024-02-14T01:58:17;95403.53;;;7.20;61.07
9839;BME280;4958;48.150;11.506;2024-02-14T02:00:57;95406.56;;;7.15;61.05
9839;BME280;4958;48.150;11.506;2024-02-14T02:03:27;95405.59;;;7.16;60.86
9839;BME280;4958;48.150;11.506;2024-02-14T02:06:18;95399.38;;;7.19;61.08
9839;BME280;4958;48.150;11.506;2024-02-14T02:08:45;95403.38;;;7.21;60.77
9839;BME280;4958;48.150;11.506;2024-02-14T02:11:28;95383.38;;;7.17;60.64
9839;BME280;4958;48.150;11.506;2024-02-14T02:14:03;95388.00;;;7.13;60.69
9839;BME280;4958;48.150;11.506;2024-02-14T02:16:35;95398.88;;;7.15;60.88
9839;BME280;4958;48.150;11.506;2024-02-14T02:19:03;95391.38;;;7.14;60.90
9839;BME280;4958;48.150;11.506;2024-02-14T02:21:43;95400.50;;;7.16;60.73
9839;BME280;4958;48.150;11.506;2024-02-14T02:24:45;95383.69;;;7.14;60.64
9839;BME280;4958;48.150;11.506;2024-02-14T02:27:27;95386.25;;;7.14;60.68
9839;BME280;4958;48.150;11.506;2024-02-14T02:30:07;95383.38;;;7.17;60.63
9839;BME280;4958;48.150;11.506;2024-02-14T02:32:39;95387.22;;;7.21;60.61
9839;BME280;4958;48.150;11.506;2024-02-14T02:35:19;95378.09;;;7.18;60.59
9839;BME280;4958;48.150;11.506;2024-02-14T02:37:52;95377.78;;;7.21;60.26
9839;BME280;4958;48.150;11.506;2024-02-14T02:40:32;95366.56;;;7.22;60.29
9839;BME280;4958;48.150;11.506;2024-02-14T02:43:08;95374.88;;;7.16;60.60
9839;BME280;4958;48.150;11.506;2024-02-14T02:45:54;95373.44;;;7.22;60.33
9839;BME280;4958;48.150;11.506;2024-02-14T02:48:51;95374.75;;;7.26;60.30
9839;BME280;4958;48.150;11.506;2024-02-14T02:51:25;95372.03;;;7.27;59.99
9839;BME280;4958;48.150;11.506;2024-02-14T02:54:18;95370.09;;;7.30;60.46
9839;BME280;4958;48.150;11.506;2024-02-14T02:57:24;95371.69;;;7.31;60.46
9839;BME280;4958;48.150;11.506;2024-02-14T03:00:06;95380.00;;;7.33;60.16
9839;BME280;4958;48.150;11.506;2024-02-14T03:03:07;95365.13;;;7.28;60.38
9839;BME280;4958;48.150;11.506;2024-02-14T03:05:47;95371.06;;;7.28;60.20
9839;BME280;4958;48.150;11.506;2024-02-14T03:08:27;95364.81;;;7.23;60.17
9839;BME280;4958;48.150;11.506;2024-02-14T03:11:17;95367.84;;;7.18;60.21
9839;BME280;4958;48.150;11.506;2024-02-14T03:17:08;95365.28;;;7.26;59.87
9839;BME280;4958;48.150;11.506;2024-02-14T03:20:02;95358.41;;;7.27;59.83
9839;BME280;4958;48.150;11.506;2024-02-14T03:22:43;95362.88;;;7.17;59.99
9839;BME280;4958;48.150;11.506;2024-02-14T03:25:23;95357.94;;;7.07;60.33
9839;BME280;4958;48.150;11.506;2024-02-14T03:31:41;95364.66;;;7.00;60.40
9839;BME280;4958;48.150;11.506;2024-02-14T03:34:50;95366.72;;;6.97;60.46
9839;BME280;4958;48.150;11.506;2024-02-14T03:38:05;95382.91;;;6.89;60.46
9839;BME280;4958;48.150;11.506;2024-02-14T03:41:10;95392.47;;;6.87;60.66
9839;BME280;4958;48.150;11.506;2024-02-14T03:44:04;95392.16;;;6.90;60.73
9839;BME280;4958;48.150;11.506;2024-02-14T03:46:39;95386.09;;;6.91;60.34
9839;BME280;4958;48.150;11.506;2024-02-14T03:53:02;95383.53;;;6.91;60.22
9839;BME280;4958;48.150;11.506;2024-02-14T03:59:16;95380.47;;;6.96;60.43
9839;BME280;4958;48.150;11.506;2024-02-14T04:05:47;95367.84;;;6.86;60.29
9839;BME280;4958;48.150;11.506;2024-02-14T04:08:51;95368.16;;;6.83;60.26
9839;BME280;4958;48.150;11.506;2024-02-14T04:11:55;95385.44;;;6.81;60.55
9839;BME280;4958;48.150;11.506;2024-02-14T04:16:21;95374.88;;;6.84;60.55
9839;BME280;4958;48.150;11.506;2024-02-14T04:18:37;95366.06;;;6.78;60.23
9839;BME280;4958;48.150;11.506;2024-02-14T04:21:28;95367.84;;;6.70;60.29
9839;BME280;4958;48.150;11.506;2024-02-14T04:24:33;95375.81;;;6.67;60.44
9839;BME280;4958;48.150;11.506;2024-02-14T04:27:33;95372.44;;;6.58;60.77
9839;BME280;4958;48.150;11.506;2024-02-14T04:33:49;95405.03;;;6.48;61.22
9839;BME280;4958;48.150;11.506;2024-02-14T04:37:15;95415.09;;;6.49;61.04
9839;BME280;4958;48.150;11.506;2024-02-14T04:39:59;95407.75;;;6.54;61.43
9839;BME280;4958;48.150;11.506;2024-02-14T04:42:46;95403.97;;;6.67;60.83
9839;BME280;4958;48.150;11.506;2024-02-14T04:45:24;95394.03;;;6.64;60.76
9839;BME280;4958;48.150;11.506;2024-02-14T04:55:01;95387.31;;;6.63;60.73
9839;BME280;4958;48.150;11.506;2024-02-14T04:58:05;95382.84;;;6.65;60.56
9839;BME280;4958;48.150;11.506;2024-02-14T05:03:53;95372.31;;;6.68;60.49
9839;BME280;4958;48.150;11.506;2024-02-14T05:06:44;95385.25;;;6.74;60.61
9839;BME280;4958;48.150;11.506;2024-02-14T05:13:22;95353.94;;;6.88;59.84
9839;BME280;4958;48.150;11.506;2024-02-14T05:15:59;95344.81;;;6.94;59.76
9839;BME280;4958;48.150;11.506;2024-02-14T05:18:43;95319.06;;;6.96;59.46
9839;BME280;4958;48.150;11.506;2024-02-14T05:21:37;95319.69;;;6.98;59.62
9839;BME280;4958;48.150;11.506;2024-02-14T05:27:56;95307.56;;;6.91;59.51
9839;BME280;4958;48.150;11.506;2024-02-14T05:30:43;95318.59;;;6.92;59.17
9839;BME280;4958;48.150;11.506;2024-02-14T05:33:13;95312.84;;;6.90;59.38
9839;BME280;4958;48.150;11.506;2024-02-14T05:36:19;95320.50;;;6.98;59.43
9839;BME280;4958;48.150;11.506;2024-02-14T05:39:14;95321.78;;;6.94;59.48
9839;BME280;4958;48.150;11.506;2024-02-14T05:41:54;95328.81;;;7.00;59.34
9839;BME280;4958;48.150;11.506;2024-02-14T05:45:06;95332.66;;;7.04;59.09
9839;BME280;4958;48.150;11.506;2024-02-14T05:48:24;95321.31;;;7.07;59.06
9839;BME280;4958;48.150;11.506;2024-02-14T05:58:03;95315.88;;;7.10;58.90
9839;BME280;4958;48.150;11.506;2024-02-14T06:05:11;95332.66;;;7.04;59.19
9839;BME280;4958;48.150;11.506;2024-02-14T06:07:59;95329.63;;;7.09;59.15
9839;BME280;4958;48.150;11.506;2024-02-14T06:10:51;95343.06;;;7.11;59.39
9839;BME280;4958;48.150;11.506;2024-02-14T06:17:14;95398.59;;;7.10;60.31
9839;BME280;4958;48.150;11.506;2024-02-14T06:20:58;95409.94;;;7.16;60.41
9839;BME280;4958;48.150;11.506;2024-02-14T06:23:37;95422.25;;;7.12;61.13
9839;BME280;4958;48.150;11.506;2024-02-14T06:26:03;95414.75;;;7.19;60.34
9839;BME280;4958;48.150;11.506;2024-02-14T06:31:54;95393.16;;;7.30;59.87
9839;BME280;4958;48.150;11.506;2024-02-14T06:34:50;95388.31;;;7.35;60.06
9839;BME280;4958;48.150;11.506;2024-02-14T06:47:22;95452.34;;;7.35;60.92
9839;BME280;4958;48.150;11.506;2024-02-14T07:03:51;95375.00;;;7.55;59.34
9839;BME280;4958;48.150;11.506;2024-02-14T07:07:16;95368.28;;;7.62;59.02
9839;BME280;4958;48.150;11.506;2024-02-14T07:09:33;95359.00;;;7.70;58.98
9839;BME280;4958;48.150;11.506;2024-02-14T07:26:19;95339.34;;;8.01;57.96
9839;BME280;4958;48.150;11.506;2024-02-14T07:29:27;95339.81;;;8.05;57.90
9839;BME280;4958;48.150;11.506;2024-02-14T07:35:59;95303.59;;;8.00;57.19
9839;BME280;4958;48.150;11.506;2024-02-14T07:41:55;95321.97;;;8.11;57.26
9839;BME280;4958;48.150;11.506;2024-02-14T07:44:28;95339.44;;;8.16;57.45
9839;BME280;4958;48.150;11.506;2024-02-14T07:47:24;95307.03;;;8.23;56.90
9839;BME280;4958;48.150;11.506;2024-02-14T07:49:54;95265.69;;;8.18;56.17
9839;BME280;4958;48.150;11.506;2024-02-14T07:52:22;95269.88;;;8.11;56.14
9839;BME280;4958;48.150;11.506;2024-02-14T07:54:51;95268.59;;;8.15;56.10
9839;BME280;4958;48.150;11.506;2024-02-14T08:00:54;95278.03;;;8.14;56.32
9839;BME280;4958;48.150;11.506;2024-02-14T08:03:20;95264.72;;;8.19;56.26
9839;BME280;4958;48.150;11.506;2024-02-14T08:06:13;95265.69;;;8.18;56.37
9839;BME280;4958;48.150;11.506;2024-02-14T08:09:07;95270.66;;;8.19;56.03
9839;BME280;4958;48.150;11.506;2024-02-14T08:11:47;95262.97;;;8.19;56.04
9839;BME280;4958;48.150;11.506;2024-02-14T08:21:26;95271.50;;;8.43;55.93
9839;BME280;4958;48.150;11.506;2024-02-14T08:27:53;95262.69;;;8.45;55.66
9839;BME280;4958;48.150;11.506;2024-02-14T08:31:30;95277.19;;;8.53;56.17
9839;BME280;4958;48.150;11.506;2024-02-14T08:34:56;95284.34;;;8.65;55.82
9839;BME280;4958;48.150;11.506;2024-02-14T08:44:39;95217.06;;;9.22;54.52
9839;BME280;4958;48.150;11.506;2024-02-14T08:50:24;95214.66;;;9.35;54.64
9839;BME280;4958;48.150;11.506;2024-02-14T08:52:56;95241.16;;;9.51;54.75
9839;BME280;4958;48.150;11.506;2024-02-14T08:55:28;95198.22;;;9.66;54.11
9839;BME280;4958;48.150;11.506;2024-02-14T08:58:21;95180.47;;;9.86;53.79
9839;BME280;4958;48.150;11.506;2024-02-14T09:01:30;95149.69;;;9.92;53.15
9839;BME280;4958;48.150;11.506;2024-02-14T09:07:51;95147.91;;;10.14;52.94
9839;BME280;4958;48.150;11.506;2024-02-14T09:10:32;95102.81;;;11.02;51.71
9839;BME280;4958;48.150;11.506;2024-02-14T09:13:26;95069.91;;;11.58;50.92
9839;BME280;4958;48.150;11.506;2024-02-14T09:16:51;94972.75;;;11.79;49.37
9839;BME280;4958;48.150;11.506;2024-02-14T09:20:13;94888.25;;;11.54;48.42
9839;BME280;4958;48.150;11.506;2024-02-14T09:23:07;94892.63;;;11.34;48.87
9839;BME280;4958;48.150;11.506;2024-02-14T09:26:28;94896.16;;;11.20;48.97
9839;BME280;4958;48.150;11.506;2024-02-14T09:33:23;94920.91;;;10.94;49.40
9839;BME280;4958;48.150;11.506;2024-02-14T09:36:18;94959.13;;;10.97;49.72
9839;BME280;4958;48.150;11.506;2024-02-14T09:56:17;94979.88;;;10.76;50.26
9839;BME280;4958;48.150;11.506;2024-02-14T09:59:25;94984.84;;;10.84;50.43
9839;BME280;4958;48.150;11.506;2024-02-14T10:25:54;94808.66;;;12.42;47.07
9839;BME280;4958;48.150;11.506;2024-02-14T10:57:05;94660.38;;;14.62;44.27
9839;BME280;4958;48.150;11.506;2024-02-14T10:59:54;94664.78;;;14.20;44.58
9839;BME280;4958;48.150;11.506;2024-02-14T11:06:18;94731.56;;;13.81;45.58
9839;BME280;4958;48.150;11.506;2024-02-14T11:09:03;94748.81;;;13.88;45.88
9839;BME280;4958;48.150;11.506;2024-02-14T11:11:36;94722.88;;;13.76;45.48
9839;BME280;4958;48.150;11.506;2024-02-14T11:14:06;94734.16;;;13.63;45.82
9839;BME280;4958;48.150;11.506;2024-02-14T11:16:32;94754.72;;;13.76;45.98
9839;BME280;4958;48.150;11.506;2024-02-14T11:19:07;94754.97;;;13.87;46.01
9839;BME280;4958;48.150;11.506;2024-02-14T11:21:37;94749.53;;;13.95;45.75
9839;BME280;4958;48.150;11.506;2024-02-14T11:24:07;94760.09;;;13.93;46.00
9839;BME280;4958;48.150;11.506;2024-02-14T11:26:46;94786.91;;;13.80;46.70
9839;BME280;4958;48.150;11.506;2024-02-14T11:29:14;94845.47;;;13.75;47.69
9839;BME280;4958;48.150;11.506;2024-02-14T11:31:42;94861.03;;;13.68;48.06
9839;BME280;4958;48.150;11.506;2024-02-14T11:34:11;94866.28;;;13.62;47.88
9839;BME280;4958;48.150;11.506;2024-02-14T11:36:38;94857.38;;;13.58;48.18
9839;BME280;4958;48.150;11.506;2024-02-14T11:39:05;94886.81;;;13.57;48.37
9839;BME280;4958;48.150;11.506;2024-02-14T11:41:35;94881.91;;;13.48;48.29
9839;BME280;4958;48.150;11.506;2024-02-14T11:44:04;94876.94;;;13.47;48.42
9839;BME280;4958;48.150;11.506;2024-02-14T11:46:31;94871.22;;;13.45;48.21
9839;BME280;4958;48.150;11.506;2024-02-14T11:49:05;94873.34;;;13.48;48.38
9839;BME280;4958;48.150;11.506;2024-02-14T11:51:33;94885.66;;;13.53;48.55
9839;BME280;4958;48.150;11.506;2024-02-14T11:54:04;94914.69;;;13.55;49.01
9839;BME280;4958;48.150;11.506;2024-02-14T11:56:32;94897.38;;;13.55;48.66
9839;BME280;4958;48.150;11.506;2024-02-14T11:59:00;94902.34;;;13.57;49.03
9839;BME280;4958;48.150;11.506;2024-02-14T12:01:35;94908.72;;;13.54;49.04
9839;BME280;4958;48.150;11.506;2024-02-14T12:05:00;94893.97;;;13.61;48.95
9839;BME280;4958;48.150;11.506;2024-02-14T12:29:25;94860.44;;;14.09;47.83
9839;BME280;4958;48.150;11.506;2024-02-14T12:39:31;94821.34;;;13.99;47.30
9839;BME280;4958;48.150;11.506;2024-02-14T12:42:33;94772.00;;;14.12;46.73
9839;BME280;4958;48.150;11.506;2024-02-14T13:55:20;95196.56;;;14.12;53.71
9839;BME280;4958;48.150;11.506;2024-02-14T13:58:19;95151.47;;;14.58;52.62
9839;BME280;4958;48.150;11.506;2024-02-14T14:04:22;95020.72;;;14.97;50.28
9839;BME280;4958;48.150;11.506;2024-02-14T14:14:07;94944.00;;;15.38;49.30
9839;BME280;4958;48.150;11.506;2024-02-14T14:17:26;94949.47;;;15.60;49.24
9839;BME280;4958;48.150;11.506;2024-02-14T14:20:33;94938.78;;;15.79;49.22
9839;BME280;4958;48.150;11.506;2024-02-14T14:23:28;94940.34;;;15.80;49.05
9839;BME280;4958;48.150;11.506;2024-02-14T14:30:16;94964.72;;;15.68;49.34
9839;BME280;4958;48.150;11.506;2024-02-14T14:36:58;94999.41;;;15.25;50.10
9839;BME280;4958;48.150;11.506;2024-02-14T14:40:17;95016.91;;;15.30;50.55
9839;BME280;4958;48.150;11.506;2024-02-14T15:11:44;95410.41;;;14.91;57.68
9839;BME280;4958;48.150;11.506;2024-02-14T15:14:10;95275.03;;;14.89;54.27
9839;BME280;4958;48.150;11.506;2024-02-14T15:16:41;95219.16;;;14.68;53.77
9839;BME280;4958;48.150;11.506;2024-02-14T15:19:10;95233.44;;;14.46;54.16
9839;BME280;4958;48.150;11.506;2024-02-14T15:21:37;95255.22;;;14.32;54.58
9839;BME280;4958;48.150;11.506;2024-02-14T15:24:06;95278.81;;;14.17;55.00
9839;BME280;4958;48.150;11.506;2024-02-14T15:26:34;95303.91;;;14.10;55.37
9839;BME280;4958;48.150;11.506;2024-02-14T15:29:16;95339.19;;;14.04;56.01
9839;BME280;4958;48.150;11.506;2024-02-14T15:32:04;95361.31;;;14.00;56.50
9839;BME280;4958;48.150;11.506;2024-02-14T15:34:49;95388.38;;;13.91;56.74
9839;BME280;4958;48.150;11.506;2024-02-14T15:37:18;95421.63;;;13.88;57.33
9839;BME280;4958;48.150;11.506;2024-02-14T15:39:47;95439.56;;;13.82;57.78
9839;BME280;4958;48.150;11.506;2024-02-14T15:42:57;95458.28;;;13.78;58.33
9839;BME280;4958;48.150;11.506;2024-02-14T15:46:28;95462.25;;;13.74;58.49
9839;BME280;4958;48.150;11.506;2024-02-14T16:31:12;95493.03;;;13.23;59.35
9839;BME280;4958;48.150;11.506;2024-02-14T16:44:36;95516.00;;;13.11;59.49
9839;BME280;4958;48.150;11.506;2024-02-14T16:51:15;95533.88;;;12.99;59.79
9839;BME280;4958;48.150;11.506;2024-02-14T16:56:54;95533.25;;;12.97;59.90
9839;BME280;4958;48.150;11.506;2024-02-14T17:00:54;95504.00;;;12.90;59.36
9839;BME280;4958;48.150;11.506;2024-02-14T17:17:39;95469.78;;;12.82;58.81
9839;BME280;4958;48.150;11.506;2024-02-14T17:26:59;95501.03;;;12.87;59.03
9839;BME280;4958;48.150;11.506;2024-02-14T17:36:45;95495.66;;;12.88;58.81
9839;BME280;4958;48.150;11.506;2024-02-14T17:39:57;95494.47;;;12.91;58.70
9839;BME280;4958;48.150;11.506;2024-02-14T17:42:45;95498.03;;;12.90;59.02
9839;BME280;4958;48.150;11.506;2024-02-14T17:45:23;95492.88;;;12.90;58.84
9839;BME280;4958;48.150;11.506;2024-02-14T17:55:09;95506.00;;;12.88;58.80
9839;BME280;4958;48.150;11.506;2024-02-14T18:04:28;95516.13;;;12.83;59.24
9839;BME280;4958;48.150;11.506;2024-02-14T18:07:50;95518.09;;;12.81;59.17
9839;BME280;4958;48.150;11.506;2024-02-14T18:11:02;95525.03;;;12.80;59.37
9839;BME280;4958;48.150;11.506;2024-02-14T18:13:51;95533.53;;;12.74;59.53
9839;BME280;4958;48.150;11.506;2024-02-14T18:16:52;95550.63;;;12.69;59.90
9839;BME280;4958;48.150;11.506;2024-02-14T18:19:34;95547.06;;;12.70;59.68
9839;BME280;4958;48.150;11.506;2024-02-14T18:22:26;95557.75;;;12.67;59.98
9839;BME280;4958;48.150;11.506;2024-02-14T18:28:37;95565.88;;;12.64;60.25
9839;BME280;4958;48.150;11.506;2024-02-14T18:32:09;95563.31;;;12.64;60.12
9839;BME280;4958;48.150;11.506;2024-02-14T18:38:06;95559.13;;;12.63;60.20
9839;BME280;4958;48.150;11.506;2024-02-14T18:44:38;95562.69;;;12.62;60.35
9839;BME280;4958;48.150;11.506;2024-02-14T18:50:58;95548.19;;;12.61;60.21
9839;BME280;4958;48.150;11.506;2024-02-14T18:53:59;95558.69;;;12.59;60.29
9839;BME280;4958;48.150;11.506;2024-02-14T18:56:55;95558.69;;;12.59;60.49
9839;BME280;4958;48.150;11.506;2024-02-14T19:03:23;95561.03;;;12.54;60.44
9839;BME280;4958;48.150;11.506;2024-02-14T19:06:19;95567.16;;;12.47;60.73
9839;BME280;4958;48.150;11.506;2024-02-14T19:09:23;95566.56;;;12.44;60.67
9839;BME280;4958;48.150;11.506;2024-02-14T19:15:32;95564.59;;;12.47;60.55
9839;BME280;4958;48.150;11.506;2024-02-14T19:18:48;95552.66;;;12.45;60.51
9839;BME280;4958;48.150;11.506;2024-02-14T19:21:45;95554.81;;;12.42;60.73
9839;BME280;4958;48.150;11.506;2024-02-14T19:32:02;95554.38;;;12.38;60.60
9839;BME280;4958;48.150;11.506;2024-02-14T19:44:19;95554.31;;;12.32;61.01
9839;BME280;4958;48.150;11.506;2024-02-14T19:48:02;95561.09;;;12.33;60.81
9839;BME280;4958;48.150;11.506;2024-02-14T19:50:58;95573.00;;;12.34;61.31
9839;BME280;4958;48.150;11.506;2024-02-14T19:54:06;95570.63;;;12.32;61.20
9839;BME280;4958;48.150;11.506;2024-02-14T19:57:11;95574.41;;;12.30;61.23
9839;BME280;4958;48.150;11.506;2024-02-14T20:00:19;95578.16;;;12.27;61.37
9839;BME280;4958;48.150;11.506;2024-02-14T20:04:05;95581.91;;;12.25;61.48
9839;BME280;4958;48.150;11.506;2024-02-14T20:06:11;95585.47;;;12.24;61.53
9839;BME280;4958;48.150;11.506;2024-02-14T20:08:53;95595.78;;;12.24;61.38
9839;BME280;4958;48.150;11.506;2024-02-14T20:11:52;95598.38;;;12.24;61.47
9839;BME280;4958;48.150;11.506;2024-02-14T20:15:28;95611.03;;;12.19;61.88
9839;BME280;4958;48.150;11.506;2024-02-14T20:18:21;95611.03;;;12.19;61.67
9839;BME280;4958;48.150;11.506;2024-02-14T20:21:30;95612.81;;;12.18;61.74
9839;BME280;4958;48.150;11.506;2024-02-14T20:24:31;95618.78;;;12.19;61.90
9839;BME280;4958;48.150;11.506;2024-02-14T20:27:34;95630.25;;;12.16;62.30
9839;BME280;4958;48.150;11.506;2024-02-14T20:33:17;95652.03;;;12.07;62.60
9839;BME280;4958;48.150;11.506;2024-02-14T20:40:13;95675.97;;;12.01;63.34
9839;BME280;4958;48.150;11.506;2024-02-14T20:43:43;95682.47;;;11.97;63.60
9839;BME280;4958;48.150;11.506;2024-02-14T20:48:36;95667.00;;;11.97;63.52
9839;BME280;4958;48.150;11.506;2024-02-14T20:49:34;95673.75;;;11.98;63.60
9839;BME280;4958;48.150;11.506;2024-02-14T20:53:36;95688.56;;;11.89;64.21
9839;BME280;4958;48.150;11.506;2024-02-14T20:55:39;95691.50;;;11.86;64.55
9839;BME280;4958;48.150;11.506;2024-02-14T20:59:08;95688.38;;;11.91;64.36
9839;BME280;4958;48.150;11.506;2024-02-14T21:01:58;95696.94;;;11.91;64.38
9839;BME280;4958;48.150;11.506;2024-02-14T21:05:01;95697.09;;;11.90;64.44
9839;BME280;4958;48.150;11.506;2024-02-14T21:07:53;95702.09;;;11.91;64.72
9839;BME280;4958;48.150;11.506;2024-02-14T21:10:49;95691.75;;;11.91;64.45
9839;BME280;4958;48.150;11.506;2024-02-14T21:13:44;95706.44;;;11.91;64.73
9839;BME280;4958;48.150;11.506;2024-02-14T21:16:14;95716.50;;;11.86;65.23
9839;BME280;4958;48.150;11.506;2024-02-14T21:18:47;95715.53;;;11.87;64.79
9839;BME280;4958;48.150;11.506;2024-02-14T21:24:23;95710.00;;;11.90;64.87
9839;BME280;4958;48.150;11.506;2024-02-14T21:27:33;95713.00;;;11.93;64.93
9839;BME280;4958;48.150;11.506;2024-02-14T21:31:04;95713.63;;;11.95;64.96
9839;BME280;4958;48.150;11.506;2024-02-14T21:34:07;95711.03;;;11.95;64.58
9839;BME280;4958;48.150;11.506;2024-02-14T21:36:41;95719.16;;;11.92;65.40
9839;BME280;4958;48.150;11.506;2024-02-14T21:39:16;95724.91;;;11.94;65.16
9839;BME280;4958;48.150;11.506;2024-02-14T21:42:23;95722.72;;;11.91;65.21
9839;BME280;4958;48.150;11.506;2024-02-14T21:45:10;95715.00;;;11.91;65.19
9839;BME280;4958;48.150;11.506;2024-02-14T21:47:53;95727.25;;;11.89;65.43
9839;BME280;4958;48.150;11.506;2024-02-14T21:53:42;95722.72;;;11.91;65.30
9839;BME280;4958;48.150;11.506;2024-02-14T21:59:26;95726.47;;;11.89;65.91
9839;BME280;4958;48.150;11.506;2024-02-14T22:02:09;95716.94;;;11.89;65.65
9839;BME280;4958;48.150;11.506;2024-02-14T22:04:41;95728.88;;;11.90;65.99
9839;BME280;4958;48.150;11.506;2024-02-14T22:07:20;95734.56;;;11.86;66.05
9839;BME280;4958;48.150;11.506;2024-02-14T22:10:07;95731.19;;;11.85;66.16
9839;BME280;4958;48.150;11.506;2024-02-14T22:12:36;95746.03;;;11.83;66.21
9839;BME280;4958;48.150;11.506;2024-02-14T22:15:39;95744.25;;;11.84;66.47
9839;BME280;4958;48.150;11.506;2024-02-14T22:18:06;95752.78;;;11.84;66.53
9839;BME280;4958;48.150;11.506;2024-02-14T22:20:40;95747.28;;;11.87;66.48
9839;BME280;4958;48.150;11.506;2024-02-14T22:23:39;95758.31;;;11.81;67.10
9839;BME280;4958;48.150;11.506;2024-02-14T22:26:44;95764.81;;;11.77;67.23
9839;BME280;4958;48.150;11.506;2024-02-14T22:29:40;95761.88;;;11.80;66.94
9839;BME280;4958;48.150;11.506;2024-02-14T22:32:15;95760.53;;;11.84;66.55
9839;BME280;4958;48.150;11.506;2024-02-14T22:38:11;95745.31;;;11.89;66.37
9839;BME280;4958;48.150;11.506;2024-02-14T22:41:26;95747.28;;;11.87;66.46
9839;BME280;4958;48.150;11.506;2024-02-14T22:44:14;95730.81;;;11.88;66.30
9839;BME280;4958;48.150;11.506;2024-02-14T22:50:28;95725.03;;;11.86;66.47
9839;BME280;4958;48.150;11.506;2024-02-14T22:53:15;95718.53;;;11.90;66.09
9839;BME280;4958;48.150;11.506;2024-02-14T22:56:12;95716.31;;;11.87;65.98
9839;BME280;4958;48.150;11.506;2024-02-14T22:59:09;95711.78;;;11.89;66.01
9839;BME280;4958;48.150;11.506;2024-02-14T23:02:10;95708.41;;;11.89;66.01
9839;BME280;4958;48.150;11.506;2024-02-14T23:05:04;95712.13;;;11.86;66.13
9839;BME280;4958;48.150;11.506;2024-02-14T23:07:54;95703.59;;;11.86;65.98
9839;BME280;4958;48.150;11.506;2024-02-14T23:10:35;95708.75;;;11.86;65.87
9839;BME280;4958;48.150;11.506;2024-02-14T23:13:03;95703.59;;;11.86;65.79
9839;BME280;4958;48.150;11.506;2024-02-14T23:15:46;95706.53;;;11.83;65.67
9839;BME280;4958;48.150;11.506;2024-02-14T23:18:34;95702.34;;;11.82;65.87
9839;BME280;4958;48.150;11.506;2024-02-14T23:21:27;95709.91;;;11.83;65.67
9839;BME280;4958;48.150;11.506;2024-02-14T23:24:14;95709.66;;;11.78;65.93
9839;BME280;4958;48.150;11.506;2024-02-14T23:26:58;95706.81;;;11.73;65.63
9839;BME280;4958;48.150;11.506;2024-02-14T23:29:38;95713.91;;;11.71;65.97
9839;BME280;4958;48.150;11.506;2024-02-14T23:32:19;95710.91;;;11.67;65.68
9839;BME280;4958;48.150;11.506;2024-02-14T23:35:03;95709.28;;;11.66;65.64
9839;BME280;4958;48.150;11.506;2024-02-14T23:37:52;95707.69;;;11.65;65.69
9839;BME280;4958;48.150;11.506;2024-02-14T23:40:29;95704.31;;;11.65;65.59
9839;BME280;4958;48.150;11.506;2024-02-14T23:43:11;95710.81;;;11.61;65.85
9839;BME280;4958;48.150;11.506;2024-02-14T23:46:02;95697.72;;;11.62;65.47
9839;BME280;4958;48.150;11.506;2024-02-14T23:48:44;95682.44;;;11.61;65.42
9839;BME280;4958;48.150;11.506;2024-02-14T23:51:21;95676.13;;;11.63;65.22